createdAt,value
2022-12-16T00:02:22.501Z,165.07
2022-12-16T00:04:50.229Z,143.30
2022-12-16T00:07:18.110Z,156.40
2022-12-16T00:09:45.773Z,141.90
2022-12-16T00:12:15.003Z,146.47
2022-12-16T00:14:42.661Z,140.80
2022-12-16T00:17:10.327Z,147.87
2022-12-16T00:19:37.966Z,138.60
2022-12-16T00:22:05.631Z,149.80
2022-12-16T00:24:33.323Z,142.30
2022-12-16T00:27:01.059Z,154.07
2022-12-16T00:29:30.096Z,142.13
2022-12-16T00:31:57.828Z,145.53
2022-12-16T00:34:25.495Z,158.67
2022-12-16T00:36:53.155Z,145.30
2022-12-16T00:39:20.923Z,147.10
2022-12-16T00:41:48.658Z,131.40
2022-12-16T00:44:16.343Z,150.37
2022-12-16T00:46:45.451Z,148.67
2022-12-16T00:49:13.089Z,155.20
2022-12-16T00:51:40.706Z,163.93
2022-12-16T00:54:08.403Z,153.10
2022-12-16T00:56:36.962Z,180.00
2022-12-16T00:59:04.642Z,160.67
2022-12-16T01:01:32.546Z,174.77
2022-12-16T01:04:01.692Z,165.17
2022-12-16T01:06:29.341Z,157.87
2022-12-16T01:08:57.042Z,168.47
2022-12-16T01:11:24.718Z,154.83
2022-12-16T01:13:52.842Z,206.30
2022-12-16T01:16:23.073Z,188.47
2022-12-16T01:18:51.032Z,142.77
2022-12-16T01:21:20.024Z,172.33
2022-12-16T01:23:48.671Z,155.77
2022-12-16T01:26:17.371Z,150.20
2022-12-16T01:28:45.208Z,154.00
2022-12-16T01:31:13.209Z,180.43
2022-12-16T01:33:40.901Z,161.67
2022-12-16T01:36:09.941Z,174.97
2022-12-16T01:38:39.096Z,216.57
2022-12-16T01:41:06.928Z,169.37
2022-12-16T01:43:35.893Z,190.53
2022-12-16T01:46:06.346Z,172.67
2022-12-16T01:48:37.231Z,186.27
2022-12-16T01:51:07.829Z,218.43
2022-12-16T01:53:37.047Z,177.87
2022-12-16T01:56:06.451Z,171.00
2022-12-16T01:58:36.027Z,176.27
2022-12-16T02:01:04.590Z,171.60
2022-12-16T02:03:33.904Z,169.80
2022-12-16T02:06:02.720Z,160.07
2022-12-16T02:08:30.419Z,162.27
2022-12-16T02:11:06.491Z,192.43
2022-12-16T02:13:40.588Z,176.53
2022-12-16T02:16:16.837Z,176.40
2022-12-16T02:18:49.322Z,192.83
2022-12-16T02:21:25.118Z,172.43
2022-12-16T02:24:03.915Z,178.83
2022-12-16T02:26:50.379Z,177.27
2022-12-16T02:29:31.943Z,174.83
2022-12-16T02:32:04.919Z,193.33
2022-12-16T02:34:36.172Z,202.63
2022-12-16T02:37:10.665Z,191.87
2022-12-16T02:39:39.060Z,188.03
2022-12-16T02:42:10.663Z,174.03
2022-12-16T02:44:42.750Z,167.93
2022-12-16T02:47:11.781Z,183.73
2022-12-16T02:49:52.643Z,189.60
2022-12-16T02:52:22.856Z,221.30
2022-12-16T02:54:52.824Z,147.43
2022-12-16T02:57:28.686Z,182.23
2022-12-16T03:00:01.896Z,167.33
2022-12-16T03:02:33.171Z,185.13
2022-12-16T03:05:03.668Z,189.10
2022-12-16T03:07:32.454Z,200.70
2022-12-16T03:10:01.067Z,197.90
2022-12-16T03:12:29.099Z,178.13
2022-12-16T03:14:59.151Z,171.50
2022-12-16T03:17:28.776Z,171.23
2022-12-16T03:20:01.806Z,178.07
2022-12-16T03:22:30.518Z,167.13
2022-12-16T03:24:58.190Z,180.37
2022-12-16T03:27:28.208Z,160.90
2022-12-16T03:30:00.234Z,175.37
2022-12-16T03:32:32.630Z,174.67
2022-12-16T03:35:03.360Z,177.77
2022-12-16T03:37:33.950Z,146.77
2022-12-16T03:40:04.536Z,152.47
2022-12-16T03:42:32.389Z,159.80
2022-12-16T03:45:00.315Z,155.07
2022-12-16T03:47:29.165Z,157.10
2022-12-16T03:49:56.874Z,152.20
2022-12-16T03:52:25.970Z,125.87
2022-12-16T03:54:53.635Z,140.40
2022-12-16T03:57:21.293Z,123.00
2022-12-16T03:59:48.978Z,114.03
2022-12-16T04:02:16.720Z,129.53
2022-12-16T04:04:44.429Z,149.50
2022-12-16T04:07:24.935Z,111.97
2022-12-16T04:09:54.197Z,123.90
2022-12-16T04:12:40.611Z,119.33
2022-12-16T04:15:34.945Z,118.27
2022-12-16T04:18:27.107Z,126.90
2022-12-16T04:21:13.962Z,113.03
2022-12-16T04:24:02.558Z,126.80
2022-12-16T04:26:31.595Z,118.30
2022-12-16T04:28:59.255Z,114.30
2022-12-16T04:31:27.123Z,110.70
2022-12-16T04:34:12.449Z,118.13
2022-12-16T04:36:57.594Z,101.77
2022-12-16T04:39:42.455Z,98.03
2022-12-16T04:42:29.164Z,96.53
2022-12-16T04:45:14.246Z,85.53
2022-12-16T04:47:59.589Z,92.97
2022-12-16T04:50:44.539Z,89.37
2022-12-16T04:53:29.527Z,91.33
2022-12-16T04:56:14.946Z,84.57
2022-12-16T04:59:07.163Z,83.43
2022-12-16T05:01:53.913Z,84.83
2022-12-16T05:04:35.547Z,91.40
2022-12-16T05:07:20.455Z,96.53
2022-12-16T05:10:01.969Z,111.57
2022-12-16T05:13:01.507Z,93.47
2022-12-16T05:15:48.093Z,93.60
2022-12-16T05:18:34.499Z,96.63
2022-12-16T05:21:20.735Z,108.80
2022-12-16T05:24:06.542Z,110.30
2022-12-16T05:26:51.641Z,104.20
2022-12-16T05:29:36.989Z,95.50
2022-12-16T05:32:23.880Z,104.97
2022-12-16T05:35:09.144Z,103.27
2022-12-16T05:37:54.372Z,97.37
2022-12-16T05:40:39.422Z,92.50
2022-12-16T05:43:24.653Z,82.33
2022-12-16T05:46:09.913Z,93.23
2022-12-16T05:48:56.742Z,68.90
2022-12-16T05:51:40.914Z,65.67
2022-12-16T05:54:26.356Z,88.00
2022-12-16T05:57:11.978Z,85.90
2022-12-16T05:59:57.253Z,65.47
2022-12-16T06:02:42.660Z,60.73
2022-12-16T06:05:43.951Z,64.33
2022-12-16T06:08:28.861Z,60.17
2022-12-16T06:11:13.912Z,65.53
2022-12-16T06:13:59.434Z,60.23
2022-12-16T06:16:44.742Z,62.33
2022-12-16T06:19:29.812Z,76.03
2022-12-16T06:22:16.502Z,68.70
2022-12-16T06:25:01.527Z,76.43
2022-12-16T06:27:46.612Z,70.67
2022-12-16T06:30:31.713Z,74.60
2022-12-16T06:33:16.805Z,83.00
2022-12-16T06:36:02.030Z,85.60
2022-12-16T06:38:48.500Z,76.23
2022-12-16T06:41:33.358Z,80.67
2022-12-16T06:44:18.847Z,76.43
2022-12-16T06:47:03.875Z,102.23
2022-12-16T06:49:49.013Z,83.43
2022-12-16T06:52:33.979Z,82.23
2022-12-16T06:55:20.472Z,80.80
2022-12-16T06:58:09.905Z,76.47
2022-12-16T07:00:55.064Z,80.60
2022-12-16T07:03:40.960Z,84.33
2022-12-16T07:06:22.787Z,81.50
2022-12-16T07:09:07.795Z,79.93
2022-12-16T07:11:54.373Z,67.97
2022-12-16T07:14:40.071Z,65.63
2022-12-16T07:17:25.122Z,68.73
2022-12-16T07:20:10.039Z,71.03
2022-12-16T07:23:04.119Z,61.83
2022-12-16T07:25:54.578Z,67.13
2022-12-16T07:28:41.101Z,67.63
2022-12-16T07:31:26.135Z,66.50
2022-12-16T07:34:11.046Z,63.20
2022-12-16T07:36:56.085Z,63.60
2022-12-16T07:39:41.218Z,65.27
2022-12-16T07:42:26.168Z,52.53
2022-12-16T07:45:13.137Z,59.80
2022-12-16T07:48:05.062Z,47.50
2022-12-16T07:50:50.193Z,60.93
2022-12-16T07:53:36.651Z,60.03
2022-12-16T07:56:22.118Z,56.63
2022-12-16T07:59:07.231Z,52.67
2022-12-16T08:01:53.948Z,60.00
2022-12-16T08:04:40.360Z,50.60
2022-12-16T08:07:25.310Z,55.13
2022-12-16T08:10:10.469Z,55.43
2022-12-16T08:12:52.813Z,65.27
2022-12-16T08:15:38.463Z,54.93
2022-12-16T08:18:25.210Z,53.57
2022-12-16T08:21:10.244Z,59.37
2022-12-16T08:23:54.482Z,59.80
2022-12-16T08:26:39.764Z,58.27
2022-12-16T08:29:43.591Z,51.73
2022-12-16T08:32:29.651Z,49.80
2022-12-16T08:35:15.966Z,60.20
2022-12-16T08:38:00.944Z,55.80
2022-12-16T08:40:46.571Z,61.90
2022-12-16T08:43:32.265Z,59.80
2022-12-16T08:46:17.531Z,66.87
2022-12-16T08:49:02.594Z,68.03
2022-12-16T08:51:49.332Z,71.13
2022-12-16T08:54:34.698Z,79.00
2022-12-16T08:57:34.116Z,60.93
2022-12-16T09:00:19.375Z,72.93
2022-12-16T09:03:04.739Z,64.23
2022-12-16T09:05:50.024Z,71.77
2022-12-16T09:08:48.764Z,70.73
2022-12-16T09:11:34.100Z,68.13
2022-12-16T09:14:16.094Z,73.13
2022-12-16T09:17:01.364Z,71.77
2022-12-16T09:19:46.574Z,71.97
2022-12-16T09:22:31.826Z,78.33
2022-12-16T09:25:32.995Z,64.73
2022-12-16T09:28:18.290Z,63.50
2022-12-16T09:31:03.616Z,75.47
2022-12-16T09:33:48.769Z,63.07
2022-12-16T09:36:33.641Z,61.80
2022-12-16T09:39:18.967Z,63.37
2022-12-16T09:42:10.965Z,65.40
2022-12-16T09:45:03.549Z,58.17
2022-12-16T09:47:52.157Z,58.10
2022-12-16T09:50:38.901Z,61.47
2022-12-16T09:53:25.596Z,55.90
2022-12-16T09:56:11.352Z,56.27
2022-12-16T09:58:59.603Z,61.10
2022-12-16T10:01:45.203Z,63.77
2022-12-16T10:04:30.167Z,50.10
2022-12-16T10:07:16.963Z,43.07
2022-12-16T10:10:04.657Z,45.53
2022-12-16T10:12:53.362Z,43.60
2022-12-16T10:15:44.604Z,51.07
2022-12-16T10:18:41.450Z,55.90
2022-12-16T10:21:28.453Z,50.03
2022-12-16T10:24:17.979Z,50.40
2022-12-16T10:27:05.749Z,47.23
2022-12-16T10:29:52.761Z,46.10
2022-12-16T10:32:43.137Z,50.90
2022-12-16T10:35:35.665Z,46.73
2022-12-16T10:38:20.577Z,42.13
2022-12-16T10:41:06.347Z,41.03
2022-12-16T10:43:51.274Z,39.10
2022-12-16T10:46:38.200Z,43.10
2022-12-16T10:49:27.095Z,49.63
2022-12-16T10:52:12.128Z,39.27
2022-12-16T10:54:58.703Z,39.43
2022-12-16T10:58:01.802Z,32.10
2022-12-16T11:00:57.979Z,37.27
2022-12-16T11:03:44.244Z,31.87
2022-12-16T11:06:33.974Z,39.57
2022-12-16T11:09:32.694Z,43.47
2022-12-16T11:12:31.991Z,43.17
2022-12-16T11:15:29.089Z,43.37
2022-12-16T11:18:20.123Z,37.63
2022-12-16T11:21:10.497Z,36.93
2022-12-16T11:23:59.220Z,31.17
2022-12-16T11:26:44.423Z,25.73
2022-12-16T11:29:31.213Z,36.50
2022-12-16T11:32:18.079Z,32.10
2022-12-16T11:35:04.561Z,28.30
2022-12-16T11:37:51.047Z,29.13
2022-12-16T11:40:38.223Z,30.57
2022-12-16T11:43:24.294Z,29.87
2022-12-16T11:46:10.854Z,32.97
2022-12-16T11:48:58.493Z,29.87
2022-12-16T11:51:44.832Z,32.50
2022-12-16T11:54:34.276Z,32.90
2022-12-16T11:57:22.037Z,39.70
2022-12-16T12:00:10.555Z,27.80
2022-12-16T12:02:59.299Z,31.90
2022-12-16T12:05:46.806Z,34.60
2022-12-16T12:08:36.299Z,32.00
2022-12-16T12:11:25.606Z,32.63
2022-12-16T12:14:17.719Z,36.07
2022-12-16T12:17:10.543Z,34.97
2022-12-16T12:20:01.506Z,34.07
2022-12-16T12:22:51.769Z,31.17
2022-12-16T12:25:42.473Z,22.77
2022-12-16T12:28:31.933Z,29.43
2022-12-16T12:31:22.904Z,34.70
2022-12-16T12:34:15.459Z,32.80
2022-12-16T12:37:05.399Z,34.10
2022-12-16T12:39:52.288Z,20.77
2022-12-16T12:42:48.962Z,32.70
2022-12-16T12:45:49.663Z,29.20
2022-12-16T12:48:39.390Z,27.40
2022-12-16T12:51:27.372Z,29.07
2022-12-16T12:54:15.325Z,33.93
2022-12-16T12:57:05.986Z,32.90
2022-12-16T13:00:02.372Z,31.40
2022-12-16T13:02:49.271Z,33.83
2022-12-16T13:05:36.545Z,35.10
2022-12-16T13:08:40.383Z,31.47
2022-12-16T13:11:34.298Z,36.23
2022-12-16T13:14:27.231Z,34.33
2022-12-16T13:17:20.342Z,34.30
2022-12-16T13:20:12.712Z,32.13
2022-12-16T13:23:11.357Z,26.80
2022-12-16T13:25:58.657Z,31.23
2022-12-16T13:28:45.453Z,33.87
2022-12-16T13:31:30.974Z,37.13
2022-12-16T13:34:20.392Z,27.93
2022-12-16T13:37:07.867Z,30.87
2022-12-16T13:39:54.625Z,29.87
2022-12-16T13:42:58.342Z,27.23
2022-12-16T13:45:48.277Z,31.53
2022-12-16T13:48:52.295Z,32.17
2022-12-16T13:52:07.205Z,31.50
2022-12-16T13:54:54.984Z,29.67
2022-12-16T13:57:42.969Z,29.40
2022-12-16T14:00:36.828Z,35.47
2022-12-16T14:03:23.819Z,26.37
2022-12-16T14:06:09.405Z,29.53
2022-12-16T14:08:56.315Z,28.63
2022-12-16T14:11:44.067Z,29.43
2022-12-16T14:14:50.339Z,31.63
2022-12-16T14:17:40.246Z,31.43
2022-12-16T14:20:30.520Z,36.43
2022-12-16T14:23:47.327Z,26.87
2022-12-16T14:26:30.044Z,30.60
2022-12-16T14:29:15.157Z,31.73
2022-12-16T14:32:02.220Z,43.07
2022-12-16T14:34:48.689Z,42.93
2022-12-16T14:37:36.166Z,27.07
2022-12-16T14:40:22.582Z,35.00
2022-12-16T14:43:12.877Z,33.83
2022-12-16T14:46:06.919Z,42.70
2022-12-16T14:48:58.906Z,34.87
2022-12-16T14:51:45.403Z,44.37
2022-12-16T14:54:38.183Z,39.07
2022-12-16T14:57:23.603Z,39.37
2022-12-16T15:00:18.126Z,43.43
2022-12-16T15:03:05.239Z,31.70
2022-12-16T15:05:53.733Z,28.70
2022-12-16T15:08:41.784Z,26.50
2022-12-16T15:11:28.722Z,19.90
2022-12-16T15:14:16.901Z,27.97
2022-12-16T15:17:03.121Z,28.70
2022-12-16T15:19:50.687Z,29.37
2022-12-16T15:22:37.621Z,31.80
2022-12-16T15:25:23.028Z,26.87
2022-12-16T15:28:12.454Z,18.13
2022-12-16T15:30:58.427Z,12.50
2022-12-16T15:33:44.593Z,18.43
2022-12-16T15:36:38.115Z,12.40
2022-12-16T15:39:29.407Z,14.03
2022-12-16T15:42:14.587Z,9.70
2022-12-16T15:45:06.110Z,12.30
2022-12-16T15:47:52.597Z,10.57
2022-12-16T15:50:39.193Z,9.40
2022-12-16T15:53:34.324Z,10.90
2022-12-16T15:56:21.525Z,10.47
2022-12-16T15:59:17.772Z,12.57
2022-12-16T16:02:08.725Z,9.73
2022-12-16T16:04:59.452Z,9.43
2022-12-16T16:07:44.648Z,8.10
2022-12-16T16:10:33.689Z,11.40
2022-12-16T16:13:32.378Z,10.83
2022-12-16T16:16:17.610Z,6.60
2022-12-16T16:19:02.856Z,10.43
2022-12-16T16:21:48.477Z,8.90
2022-12-16T16:24:33.750Z,6.20
2022-12-16T16:27:21.288Z,10.60
2022-12-16T16:30:08.137Z,10.97
2022-12-16T16:32:53.169Z,7.57
2022-12-16T16:35:38.316Z,7.27
2022-12-16T16:38:23.526Z,13.10
2022-12-16T16:41:08.783Z,16.37
2022-12-16T16:43:53.939Z,12.57
2022-12-16T16:46:48.971Z,12.17
2022-12-16T16:49:38.221Z,10.73
2022-12-16T16:52:23.748Z,10.27
2022-12-16T16:55:08.559Z,13.60
2022-12-16T16:57:55.782Z,11.50
2022-12-16T17:00:42.070Z,11.93
2022-12-16T17:03:28.594Z,13.40
2022-12-16T17:06:14.003Z,15.10
2022-12-16T17:08:59.096Z,13.33
2022-12-16T17:11:44.963Z,12.83
2022-12-16T17:14:30.585Z,14.10
2022-12-16T17:17:15.714Z,14.97
2022-12-16T17:20:02.512Z,12.10
2022-12-16T17:22:47.519Z,11.40
2022-12-16T17:25:32.979Z,10.77
2022-12-16T17:28:17.972Z,9.63
2022-12-16T17:31:02.909Z,7.33
2022-12-16T17:33:48.432Z,9.63
2022-12-16T17:36:36.273Z,9.30
2022-12-16T17:39:21.859Z,15.17
2022-12-16T17:42:07.472Z,13.47
2022-12-16T17:44:52.806Z,11.20
2022-12-16T17:47:38.617Z,10.13
2022-12-16T17:50:24.229Z,7.80
2022-12-16T17:53:13.902Z,10.37
2022-12-16T17:55:59.423Z,13.13
2022-12-16T17:58:54.965Z,13.20
2022-12-16T18:01:40.531Z,9.80
2022-12-16T18:04:26.240Z,8.43
2022-12-16T18:07:11.723Z,11.50
2022-12-16T18:09:58.246Z,11.37
2022-12-16T18:12:43.411Z,15.00
2022-12-16T18:15:28.758Z,10.50
2022-12-16T18:18:13.575Z,12.03
2022-12-16T18:21:13.180Z,18.07
2022-12-16T18:23:58.418Z,12.20
2022-12-16T18:26:45.158Z,13.97
2022-12-16T18:29:30.166Z,13.20
2022-12-16T18:32:15.260Z,13.90
2022-12-16T18:35:00.422Z,11.83
2022-12-16T18:37:45.571Z,11.87
2022-12-16T18:40:30.647Z,10.53
2022-12-16T18:43:18.082Z,11.77
2022-12-16T18:46:09.942Z,15.77
2022-12-16T18:48:54.975Z,14.60
2022-12-16T18:51:40.186Z,11.90
2022-12-16T18:54:25.397Z,17.87
2022-12-16T18:57:10.514Z,10.53
2022-12-16T18:59:57.471Z,13.57
2022-12-16T19:02:42.442Z,9.80
2022-12-16T19:05:27.427Z,11.23
2022-12-16T19:08:14.461Z,9.17
2022-12-16T19:10:59.918Z,8.77
2022-12-16T19:13:45.303Z,13.37
2022-12-16T19:16:32.133Z,12.13
2022-12-16T19:19:20.139Z,9.30
2022-12-16T19:22:05.891Z,11.93
2022-12-16T19:24:50.769Z,12.43
2022-12-16T19:27:35.905Z,14.57
2022-12-16T19:30:21.326Z,14.33
2022-12-16T19:33:08.000Z,9.23
2022-12-16T19:36:14.311Z,11.87
2022-12-16T19:38:59.321Z,13.43
2022-12-16T19:41:44.248Z,18.40
2022-12-16T19:44:29.335Z,14.07
2022-12-16T19:47:14.138Z,13.73
2022-12-16T19:50:01.052Z,17.20
2022-12-16T19:52:46.001Z,14.80
2022-12-16T19:55:31.369Z,12.80
2022-12-16T19:58:16.383Z,12.50
2022-12-16T20:01:01.320Z,9.97
2022-12-16T20:03:47.020Z,14.23
2022-12-16T20:06:33.113Z,15.47
2022-12-16T20:09:18.560Z,12.37
2022-12-16T20:12:07.327Z,15.17
2022-12-16T20:14:52.223Z,11.33
2022-12-16T20:17:38.756Z,12.83
2022-12-16T20:20:24.300Z,11.13
2022-12-16T20:23:11.083Z,9.10
2022-12-16T20:25:56.514Z,7.80
2022-12-16T20:28:42.053Z,9.43
2022-12-16T20:31:27.127Z,11.60
2022-12-16T20:34:12.803Z,7.93
2022-12-16T20:36:58.319Z,12.77
2022-12-16T20:39:51.176Z,11.93
2022-12-16T20:42:41.435Z,12.57
2022-12-16T20:45:26.907Z,10.53
2022-12-16T20:48:12.228Z,12.97
2022-12-16T20:50:57.434Z,14.00
2022-12-16T20:53:42.844Z,11.97
2022-12-16T20:56:29.477Z,14.73
2022-12-16T20:59:14.583Z,14.83
2022-12-16T21:02:22.158Z,13.70
2022-12-16T21:05:04.586Z,14.80
2022-12-16T21:07:49.310Z,15.37
2022-12-16T21:10:34.229Z,15.30
2022-12-16T21:13:25.581Z,15.67
2022-12-16T21:16:10.554Z,12.83
2022-12-16T21:18:55.646Z,15.70
2022-12-16T21:21:41.775Z,17.33
2022-12-16T21:24:27.369Z,16.73
2022-12-16T21:27:14.489Z,19.33
2022-12-16T21:30:06.403Z,16.23
2022-12-16T21:32:51.496Z,18.50
2022-12-16T21:35:38.639Z,18.80
2022-12-16T21:38:26.701Z,17.73
2022-12-16T21:41:12.266Z,18.30
2022-12-16T21:43:57.235Z,20.20
2022-12-16T21:46:44.111Z,18.97
2022-12-16T21:49:29.026Z,17.43
2022-12-16T21:52:13.817Z,17.57
2022-12-16T21:54:58.789Z,17.03
2022-12-16T21:57:53.228Z,17.97
2022-12-16T22:00:39.187Z,17.77
2022-12-16T22:03:25.394Z,18.13
2022-12-16T22:06:10.396Z,19.43
2022-12-16T22:12:00.658Z,23.00
2022-12-16T22:14:45.909Z,24.03
2022-12-16T22:17:30.809Z,17.57
2022-12-16T22:20:17.416Z,23.13
2022-12-16T22:23:02.328Z,22.40
2022-12-16T22:25:47.251Z,26.27
2022-12-16T22:28:32.165Z,22.83
2022-12-16T22:31:17.029Z,22.00
2022-12-16T22:34:02.383Z,22.93
2022-12-16T22:36:49.073Z,23.47
2022-12-16T22:39:33.860Z,21.43
2022-12-16T22:42:18.809Z,25.47
2022-12-16T22:45:03.683Z,24.70
2022-12-16T22:47:49.688Z,27.80
2022-12-16T22:50:34.800Z,28.50
2022-12-16T22:53:21.324Z,29.07
2022-12-16T22:56:20.267Z,27.87
2022-12-16T22:59:05.648Z,28.67
2022-12-16T23:01:50.698Z,29.90
2022-12-16T23:04:37.189Z,27.93
2022-12-16T23:07:24.575Z,26.50
2022-12-16T23:10:11.364Z,26.17
2022-12-16T23:12:57.125Z,29.37
2022-12-16T23:15:42.690Z,29.23
2022-12-16T23:18:28.223Z,28.00
2022-12-16T23:21:13.147Z,29.57
2022-12-16T23:23:59.383Z,27.90
2022-12-16T23:26:45.794Z,30.33
2022-12-16T23:29:30.949Z,31.10
2022-12-16T23:32:16.122Z,32.13
2022-12-16T23:35:00.928Z,35.17
2022-12-16T23:37:45.889Z,30.93
2022-12-16T23:40:31.127Z,28.63
2022-12-16T23:43:17.891Z,30.57
2022-12-16T23:46:02.908Z,29.00
2022-12-16T23:48:48.090Z,27.87
2022-12-16T23:51:33.152Z,31.23
2022-12-16T23:54:18.059Z,34.40
2022-12-16T23:57:03.037Z,30.50
2022-12-16T23:59:49.720Z,29.13
